Time;durP1;ratioP1;P1;durP2;ratioP2;P2;SDS_P1;SDS_P2;PMS_P1;PMS_P2;Temp;Humidity;BMP_temperature;BMP_pressure;BME280_temperature;BME280_humidity;BME280_pressure;Samples;Min_cycle;Max_cycle;Signal;HPM_P1;HPM_P2
2022/08/10 00:01:26;;;;;;;6.80;4.10;;;18.90;99.90;;;;;;4998559;28;20621;-75
2022/08/10 00:03:53;;;;;;;5.32;4.20;;;19.00;99.90;;;;;;5004307;28;20226;-74
2022/08/10 00:06:19;;;;;;;6.10;4.32;;;18.90;99.90;;;;;;5007679;28;20211;-74
2022/08/10 00:08:48;;;;;;;8.45;4.43;;;18.90;99.90;;;;;;5012289;28;20207;-72
2022/08/10 00:11:14;;;;;;;6.22;3.97;;;18.80;99.90;;;;;;5012575;28;20215;-74
2022/08/10 00:13:41;;;;;;;6.82;4.75;;;18.80;99.90;;;;;;5012314;28;20214;-73
2022/08/10 00:16:08;;;;;;;7.00;3.90;;;18.80;99.90;;;;;;5011548;28;20215;-74
2022/08/10 00:18:35;;;;;;;4.47;3.83;;;18.80;99.90;;;;;;5011306;28;20211;-74
2022/08/10 00:21:02;;;;;;;4.82;4.28;;;18.80;99.90;;;;;;5011172;28;20199;-74
2022/08/10 00:23:29;;;;;;;9.63;3.83;;;18.70;99.90;;;;;;5012461;28;20677;-73
2022/08/10 00:25:57;;;;;;;6.00;4.13;;;18.70;99.90;;;;;;5012264;28;20204;-72
2022/08/10 00:28:24;;;;;;;5.60;4.20;;;18.70;99.90;;;;;;5012248;28;20219;-73
2022/08/10 00:30:50;;;;;;;6.35;4.45;;;18.70;99.90;;;;;;5012892;28;20640;-72
2022/08/10 00:33:17;;;;;;;5.95;4.10;;;18.60;99.90;;;;;;5012002;28;20231;-73
2022/08/10 00:35:44;;;;;;;5.50;4.25;;;18.60;99.90;;;;;;5012211;28;20261;-73
2022/08/10 00:38:11;;;;;;;4.47;4.07;;;18.60;99.90;;;;;;5009459;28;20214;-74
2022/08/10 00:40:37;;;;;;;6.40;3.92;;;18.60;99.90;;;;;;5007125;28;20546;-73
2022/08/10 00:43:06;;;;;;;5.20;3.92;;;18.60;99.90;;;;;;5011547;28;20199;-72
2022/08/10 00:45:33;;;;;;;9.30;4.03;;;18.50;99.90;;;;;;5011619;28;20211;-74
2022/08/10 00:48:00;;;;;;;5.15;4.18;;;18.50;99.90;;;;;;5011336;28;20679;-74
2022/08/10 00:50:27;;;;;;;5.20;3.85;;;18.40;99.90;;;;;;5012547;28;20211;-74
2022/08/10 00:52:54;;;;;;;9.27;4.22;;;18.50;99.90;;;;;;5011568;28;20235;-74
2022/08/10 00:55:21;;;;;;;7.38;3.75;;;18.40;99.90;;;;;;5004312;28;20214;-74
2022/08/10 00:57:49;;;;;;;5.57;4.10;;;18.40;99.90;;;;;;5009718;28;20715;-73
2022/08/10 01:00:18;;;;;;;6.53;3.25;;;18.40;99.90;;;;;;5011787;28;20230;-74
2022/08/10 01:02:45;;;;;;;5.05;3.80;;;18.30;99.90;;;;;;5011453;28;20195;-75
2022/08/10 01:05:14;;;;;;;4.88;3.72;;;18.30;99.90;;;;;;5011479;28;20203;-74
2022/08/10 01:08:16;;;;;;;5.53;3.45;;;18.20;99.90;;;;;;4999595;28;20664;-74
2022/08/10 01:10:55;;;;;;;6.55;3.45;;;18.20;99.90;;;;;;4996345;28;20679;-73
2022/08/10 01:13:27;;;;;;;4.43;3.45;;;18.20;99.90;;;;;;5000990;28;20223;-73
2022/08/10 01:16:01;;;;;;;6.00;3.85;;;18.20;99.90;;;;;;5006140;28;20206;-73
2022/08/10 01:18:42;;;;;;;5.18;3.83;;;18.20;99.90;;;;;;5006949;28;20217;-73
2022/08/10 01:21:51;;;;;;;5.45;3.33;;;18.10;99.90;;;;;;5006149;28;20207;-73
2022/08/10 01:24:53;;;;;;;7.05;3.70;;;18.10;99.90;;;;;;5003673;28;20214;-74
2022/08/10 01:27:28;;;;;;;5.97;3.95;;;18.00;99.90;;;;;;5004459;28;20634;-73
2022/08/10 01:30:03;;;;;;;4.50;3.70;;;17.90;99.90;;;;;;5002898;28;20206;-73
2022/08/10 01:32:36;;;;;;;6.00;3.60;;;17.90;99.90;;;;;;5010966;28;20241;-73
2022/08/10 01:35:11;;;;;;;4.05;3.63;;;17.90;99.90;;;;;;5006533;28;20203;-73
2022/08/10 01:37:43;;;;;;;7.32;3.85;;;17.90;99.90;;;;;;5010993;28;20767;-74
2022/08/10 01:40:12;;;;;;;3.53;3.22;;;17.90;99.90;;;;;;5011956;28;20207;-73
2022/08/10 01:42:42;;;;;;;6.72;4.07;;;17.80;99.90;;;;;;5011503;28;20539;-74
2022/08/10 01:45:15;;;;;;;3.72;2.90;;;17.80;99.90;;;;;;5008443;28;20208;-73
2022/08/10 01:50:32;;;;;;;6.10;3.25;;;17.70;99.90;;;;;;5009777;28;20242;-73
2022/08/10 01:53:04;;;;;;;3.60;3.25;;;17.70;99.90;;;;;;5010887;28;20226;-73
2022/08/10 01:55:33;;;;;;;3.33;3.03;;;17.70;99.90;;;;;;5009917;28;20215;-74
2022/08/10 01:58:02;;;;;;;3.97;3.30;;;17.60;99.90;;;;;;5009997;28;20526;-74
2022/08/10 02:00:33;;;;;;;6.00;3.80;;;17.60;99.90;;;;;;5009609;28;20353;-73
2022/08/10 02:03:01;;;;;;;6.57;3.33;;;17.60;99.90;;;;;;5009012;28;20553;-74
2022/08/10 02:05:31;;;;;;;5.20;3.50;;;17.60;99.90;;;;;;5000705;28;20250;-74
2022/08/10 02:08:01;;;;;;;3.80;3.42;;;17.60;99.90;;;;;;5010755;28;20217;-74
2022/08/10 02:10:28;;;;;;;4.88;3.28;;;17.60;99.90;;;;;;5011179;28;20218;-74
2022/08/10 02:12:57;;;;;;;4.57;3.33;;;17.50;99.90;;;;;;5011049;28;20691;-73
2022/08/10 02:15:27;;;;;;;4.82;3.40;;;17.50;99.90;;;;;;5008866;28;20207;-74
2022/08/10 02:17:59;;;;;;;5.00;3.53;;;17.50;99.90;;;;;;5011192;28;20214;-73
2022/08/10 02:20:28;;;;;;;3.67;3.38;;;17.50;99.90;;;;;;5009449;28;20199;-73
2022/08/10 02:22:59;;;;;;;4.20;3.03;;;17.50;99.90;;;;;;5009868;28;20238;-73
2022/08/10 02:25:27;;;;;;;5.00;3.08;;;17.50;99.90;;;;;;5009930;28;20290;-73
2022/08/10 02:27:55;;;;;;;3.80;2.97;;;17.40;99.90;;;;;;5009782;28;20219;-74
2022/08/10 02:30:22;;;;;;;5.95;3.58;;;17.40;99.90;;;;;;5009828;28;20207;-73
2022/08/10 02:32:50;;;;;;;3.70;3.40;;;17.40;99.90;;;;;;5010787;28;20230;-74
2022/08/10 02:35:20;;;;;;;4.55;3.60;;;17.40;99.90;;;;;;5009614;28;20591;-74
2022/08/10 02:37:49;;;;;;;3.88;3.30;;;17.40;99.90;;;;;;5009087;28;20206;-74
2022/08/10 02:40:16;;;;;;;4.22;3.60;;;17.40;99.90;;;;;;5010436;28;20207;-74
2022/08/10 02:42:50;;;;;;;4.32;3.20;;;17.30;99.90;;;;;;5008628;28;20214;-72
2022/08/10 02:45:19;;;;;;;4.28;3.08;;;17.30;99.90;;;;;;5010298;28;20206;-74
2022/08/10 02:47:52;;;;;;;3.30;2.95;;;17.30;99.90;;;;;;5008630;28;20214;-73
2022/08/10 02:50:26;;;;;;;3.95;3.28;;;17.30;99.90;;;;;;5010103;28;20214;-74
2022/08/10 02:53:00;;;;;;;3.30;3.00;;;17.30;99.90;;;;;;5008897;28;20691;-73
2022/08/10 02:55:33;;;;;;;4.30;3.50;;;17.30;99.90;;;;;;5008303;28;20572;-73
2022/08/10 02:58:07;;;;;;;3.75;3.35;;;17.30;99.90;;;;;;5005995;28;20672;-73
2022/08/10 03:00:38;;;;;;;5.03;3.30;;;17.20;99.90;;;;;;5009609;28;20563;-73
2022/08/10 03:03:05;;;;;;;5.90;3.30;;;17.20;99.90;;;;;;5009619;28;20207;-74
2022/08/10 03:05:33;;;;;;;5.43;3.10;;;17.20;99.90;;;;;;5009170;28;20211;-74
2022/08/10 03:08:03;;;;;;;6.03;3.47;;;17.20;99.90;;;;;;5008105;28;20203;-74
2022/08/10 03:10:32;;;;;;;4.37;3.40;;;17.20;99.90;;;;;;5010128;28;20217;-73
2022/08/10 03:13:01;;;;;;;4.25;3.60;;;17.20;99.90;;;;;;5008750;28;20226;-73
2022/08/10 03:15:29;;;;;;;3.65;3.10;;;17.10;99.90;;;;;;4997991;28;21282;-74
2022/08/10 03:17:58;;;;;;;4.47;3.77;;;17.20;99.90;;;;;;5009068;28;20211;-73
2022/08/10 03:20:25;;;;;;;6.07;3.17;;;17.10;99.90;;;;;;5012533;28;20242;-72
2022/08/10 03:22:55;;;;;;;5.83;3.20;;;17.10;99.90;;;;;;5014100;28;20239;-73
2022/08/10 03:25:24;;;;;;;4.80;3.57;;;17.10;99.90;;;;;;5013107;28;20203;-73
2022/08/10 03:27:52;;;;;;;3.90;3.13;;;17.00;99.90;;;;;;5013009;28;20211;-72
2022/08/10 03:30:20;;;;;;;3.67;3.03;;;17.00;99.90;;;;;;5013136;28;20691;-72
2022/08/10 03:32:48;;;;;;;6.03;3.13;;;17.00;99.90;;;;;;5013134;28;20219;-74
2022/08/10 03:35:16;;;;;;;5.00;3.50;;;17.00;99.90;;;;;;5013914;28;20219;-74
2022/08/10 03:37:43;;;;;;;5.13;3.50;;;17.00;99.90;;;;;;5011138;28;20664;-73
2022/08/10 03:40:11;;;;;;;3.43;3.10;;;17.00;99.90;;;;;;5013700;28;20211;-73
2022/08/10 03:42:40;;;;;;;4.70;3.23;;;17.00;99.90;;;;;;5012667;28;20649;-73
2022/08/10 03:45:09;;;;;;;6.50;3.47;;;17.00;99.90;;;;;;5013185;28;20591;-74
2022/08/10 03:47:38;;;;;;;4.80;3.70;;;17.00;99.90;;;;;;5009668;28;20222;-74
2022/08/10 03:50:06;;;;;;;4.23;3.33;;;17.00;99.90;;;;;;5013192;28;20294;-75
2022/08/10 03:52:33;;;;;;;6.63;3.77;;;17.10;99.90;;;;;;5013500;28;20233;-75
2022/08/10 03:55:00;;;;;;;6.00;3.67;;;17.10;99.90;;;;;;5013518;28;20203;-75
2022/08/10 03:57:29;;;;;;;5.37;3.57;;;17.20;99.90;;;;;;5011250;28;20239;-75
2022/08/10 03:59:56;;;;;;;6.78;2.88;;;17.20;99.90;;;;;;5012802;28;20226;-73
2022/08/10 04:02:23;;;;;;;5.00;4.13;;;17.30;99.90;;;;;;5011936;28;20235;-74
2022/08/10 04:04:50;;;;;;;5.13;3.28;;;17.30;99.90;;;;;;5013056;28;20203;-74
2022/08/10 04:07:17;;;;;;;4.43;3.97;;;17.30;99.90;;;;;;5011878;28;20569;-76
2022/08/10 04:09:44;;;;;;;5.55;3.13;;;17.40;99.90;;;;;;5012301;28;20226;-74
2022/08/10 04:12:11;;;;;;;7.37;3.70;;;17.50;99.90;;;;;;5012816;28;20203;-74
2022/08/10 04:14:39;;;;;;;3.55;3.22;;;17.50;99.90;;;;;;5011932;28;20230;-74
2022/08/10 04:17:06;;;;;;;4.60;3.42;;;17.50;99.90;;;;;;5011762;28;20215;-75
2022/08/10 04:19:40;;;;;;;3.97;3.30;;;17.50;99.90;;;;;;5013084;28;20711;-75
2022/08/10 04:22:12;;;;;;;3.80;3.33;;;17.50;99.90;;;;;;5011763;28;20304;-74
2022/08/10 04:24:41;;;;;;;5.78;3.30;;;17.60;99.90;;;;;;5013385;28;20191;-74
2022/08/10 04:27:08;;;;;;;4.37;3.50;;;17.60;99.90;;;;;;5012195;28;20211;-74
2022/08/10 04:29:35;;;;;;;4.93;3.50;;;17.70;99.90;;;;;;5011147;28;20299;-74
2022/08/10 04:32:05;;;;;;;4.65;3.55;;;17.70;99.90;;;;;;5005413;28;20212;-75
2022/08/10 04:34:33;;;;;;;9.83;3.90;;;17.70;99.90;;;;;;5005915;28;20671;-74
2022/08/10 04:37:01;;;;;;;10.60;4.00;;;17.70;99.90;;;;;;5011182;28;20210;-74
2022/08/10 04:39:28;;;;;;;5.37;3.63;;;17.80;99.90;;;;;;5011738;28;20239;-74
2022/08/10 04:41:55;;;;;;;5.93;3.42;;;17.90;99.90;;;;;;5013001;28;20214;-75
2022/08/10 04:44:22;;;;;;;5.65;3.60;;;17.90;99.90;;;;;;5014741;28;20207;-76
2022/08/10 04:46:49;;;;;;;5.93;3.00;;;17.90;99.90;;;;;;5011619;28;20212;-74
2022/08/10 04:49:18;;;;;;;5.45;3.17;;;17.90;99.90;;;;;;5013932;28;20235;-75
2022/08/10 04:51:44;;;;;;;4.20;3.08;;;18.00;99.90;;;;;;5012451;28;20214;-74
2022/08/10 04:54:11;;;;;;;5.83;3.80;;;18.00;99.90;;;;;;5013564;28;20226;-74
2022/08/10 04:56:39;;;;;;;4.43;3.80;;;18.10;99.90;;;;;;5012789;28;20242;-75
2022/08/10 04:59:07;;;;;;;6.35;4.95;;;18.10;99.90;;;;;;5013495;28;20226;-75
2022/08/10 05:01:35;;;;;;;4.72;3.75;;;18.10;99.90;;;;;;5011135;28;20305;-75
2022/08/10 05:04:02;;;;;;;5.32;3.05;;;18.20;99.90;;;;;;5012926;28;20274;-74
2022/08/10 05:06:31;;;;;;;4.03;3.40;;;18.30;99.90;;;;;;5013006;28;20215;-75
2022/08/10 05:08:57;;;;;;;5.38;3.50;;;18.30;99.90;;;;;;5006183;28;20574;-75
2022/08/10 05:11:24;;;;;;;4.90;3.40;;;18.30;99.90;;;;;;5011731;28;20574;-71
2022/08/10 05:13:51;;;;;;;3.95;3.22;;;18.30;99.90;;;;;;5010659;28;20231;-69
2022/08/10 05:16:18;;;;;;;8.15;3.83;;;18.40;99.90;;;;;;5009548;28;20660;-70
2022/08/10 05:18:44;;;;;;;5.85;3.80;;;18.40;99.90;;;;;;5008291;28;20630;-73
2022/08/10 05:21:11;;;;;;;6.63;3.90;;;18.40;99.90;;;;;;5011380;28;20206;-73
2022/08/10 05:23:39;;;;;;;7.15;3.97;;;18.50;99.90;;;;;;5011369;28;20234;-71
2022/08/10 05:26:06;;;;;;;6.30;3.20;;;18.60;99.90;;;;;;4999469;28;20211;-70
2022/08/10 05:28:33;;;;;;;5.85;3.60;;;18.70;99.90;;;;;;5011089;28;20207;-69
2022/08/10 05:31:00;;;;;;;6.03;3.53;;;18.80;99.90;;;;;;5010964;28;20203;-70
2022/08/10 05:33:26;;;;;;;5.60;3.45;;;18.90;99.90;;;;;;5009655;28;20231;-69
2022/08/10 05:35:53;;;;;;;5.38;3.50;;;18.90;99.90;;;;;;5006162;28;20215;-72
2022/08/10 05:38:22;;;;;;;4.93;2.90;;;19.00;99.90;;;;;;5007949;28;20219;-72
2022/08/10 05:40:51;;;;;;;30.83;14.05;;;19.00;99.90;;;;;;5008400;28;20575;-74
2022/08/10 05:43:19;;;;;;;58.67;25.05;;;19.10;99.90;;;;;;5007720;28;20225;-74
2022/08/10 05:45:46;;;;;;;63.47;23.65;;;19.20;99.90;;;;;;5010044;28;20624;-73
2022/08/10 05:48:13;;;;;;;27.48;12.30;;;19.30;99.90;;;;;;5009557;28;20211;-72
2022/08/10 05:50:40;;;;;;;19.17;9.10;;;19.40;99.90;;;;;;5008380;28;20660;-73
2022/08/10 05:53:07;;;;;;;25.45;11.48;;;19.50;99.90;;;;;;5007390;28;20234;-73
2022/08/10 05:55:34;;;;;;;17.10;8.00;;;19.60;99.90;;;;;;5010232;28;20206;-73
2022/08/10 05:58:02;;;;;;;8.50;4.60;;;19.70;99.90;;;;;;5002881;28;20210;-73
2022/08/10 06:00:30;;;;;;;20.33;8.88;;;19.70;99.90;;;;;;5007805;28;20573;-73
2022/08/10 06:03:03;;;;;;;16.15;7.47;;;19.60;99.90;;;;;;5012175;28;20214;-72
2022/08/10 06:05:34;;;;;;;16.65;7.38;;;19.60;99.90;;;;;;5010481;28;20687;-72
2022/08/10 06:08:04;;;;;;;8.60;5.45;;;19.60;99.90;;;;;;5011437;28;20207;-74
2022/08/10 06:10:33;;;;;;;9.20;4.43;;;19.70;99.90;;;;;;5012210;28;20207;-75
2022/08/10 06:15:49;;;;;;;8.07;4.32;;;19.70;99.90;;;;;;5006506;28;20206;-74
2022/08/10 06:18:18;;;;;;;7.53;4.35;;;19.70;99.90;;;;;;5007080;28;20675;-74
2022/08/10 06:20:46;;;;;;;6.15;3.78;;;19.80;99.90;;;;;;5008512;28;20211;-75
2022/08/10 06:23:14;;;;;;;8.13;3.17;;;19.90;99.90;;;;;;5009616;28;20229;-75
2022/08/10 06:25:41;;;;;;;7.20;3.15;;;20.00;99.90;;;;;;5008372;28;20206;-74
2022/08/10 06:28:14;;;;;;;7.82;3.55;;;20.10;99.90;;;;;;5006903;28;20222;-74
2022/08/10 06:30:41;;;;;;;6.90;3.70;;;20.20;99.90;;;;;;5012213;28;20199;-74
2022/08/10 06:33:09;;;;;;;3.58;3.17;;;20.30;99.90;;;;;;5012224;28;20207;-75
2022/08/10 06:35:37;;;;;;;4.63;3.20;;;20.40;99.90;;;;;;5010410;28;20215;-74
2022/08/10 06:38:06;;;;;;;3.25;2.70;;;20.50;99.90;;;;;;5011790;28;20663;-74
2022/08/10 06:40:35;;;;;;;3.13;2.33;;;20.60;99.90;;;;;;5009339;28;20211;-70
2022/08/10 06:43:05;;;;;;;4.38;3.42;;;20.70;99.90;;;;;;5010935;28;20207;-73
2022/08/10 06:45:39;;;;;;;5.50;3.05;;;20.90;99.90;;;;;;5012538;28;20203;-74
2022/08/10 06:48:14;;;;;;;8.35;3.30;;;21.10;99.90;;;;;;5012044;28;20218;-73
2022/08/10 06:50:45;;;;;;;5.10;3.38;;;21.20;99.90;;;;;;5012235;28;20202;-75
2022/08/10 06:53:14;;;;;;;5.32;2.97;;;21.30;99.90;;;;;;5011009;28;20445;-74
2022/08/10 06:55:44;;;;;;;4.47;2.83;;;21.30;99.90;;;;;;5005982;28;20345;-74
2022/08/10 06:58:12;;;;;;;11.57;2.47;;;21.30;99.90;;;;;;5009248;28;20591;-75
2022/08/10 07:00:42;;;;;;;7.15;2.65;;;21.40;99.90;;;;;;5009830;28;20551;-75
2022/08/10 07:03:11;;;;;;;5.38;2.58;;;21.40;99.90;;;;;;5009247;28;20210;-75
2022/08/10 07:05:46;;;;;;;3.28;2.40;;;21.40;99.90;;;;;;5009050;28;20211;-75
2022/08/10 07:08:14;;;;;;;2.85;2.35;;;21.50;99.90;;;;;;5007776;28;20195;-75
2022/08/10 07:10:43;;;;;;;4.72;2.15;;;21.60;99.90;;;;;;5011262;28;20215;-76
2022/08/10 07:13:12;;;;;;;3.88;1.75;;;21.60;99.90;;;;;;5011283;28;20297;-75
2022/08/10 07:15:41;;;;;;;5.22;2.08;;;21.70;99.90;;;;;;5003388;28;20207;-74
2022/08/10 07:18:11;;;;;;;3.03;2.10;;;21.70;99.90;;;;;;5007385;28;20213;-74
2022/08/10 07:20:38;;;;;;;3.58;2.30;;;21.80;99.90;;;;;;5009881;28;20208;-74
2022/08/10 07:23:06;;;;;;;3.58;2.20;;;21.80;99.90;;;;;;5008767;28;20619;-74
2022/08/10 07:25:33;;;;;;;4.93;2.40;;;21.90;99.90;;;;;;5010985;28;20207;-74
2022/08/10 07:28:02;;;;;;;8.15;3.35;;;22.00;99.90;;;;;;5009906;28;20559;-74
2022/08/10 07:30:31;;;;;;;6.72;2.35;;;22.10;99.90;;;;;;5007350;28;20218;-76
2022/08/10 07:33:01;;;;;;;7.80;2.15;;;22.20;99.90;;;;;;5006412;28;20211;-77
2022/08/10 07:35:31;;;;;;;7.80;2.28;;;22.30;99.90;;;;;;5009578;28;20231;-76
2022/08/10 07:38:01;;;;;;;6.80;2.72;;;22.40;99.90;;;;;;5010600;28;20207;-75
2022/08/10 07:40:29;;;;;;;3.88;2.40;;;22.40;99.90;;;;;;5010051;28;20207;-78
2022/08/10 07:42:59;;;;;;;2.78;2.00;;;22.60;99.90;;;;;;5009767;28;20298;-76
2022/08/10 07:45:28;;;;;;;5.45;2.58;;;22.60;99.90;;;;;;5010145;28;20207;-75
2022/08/10 07:48:01;;;;;;;4.28;1.88;;;22.70;99.90;;;;;;5010789;28;20211;-77
2022/08/10 07:50:30;;;;;;;4.10;2.17;;;22.90;99.90;;;;;;5009712;28;20211;-77
2022/08/10 07:53:02;;;;;;;4.13;2.35;;;23.00;99.90;;;;;;5009046;28;20203;-75
2022/08/10 07:55:30;;;;;;;5.07;3.10;;;23.20;99.90;;;;;;5011450;28;20219;-77
2022/08/10 07:57:59;;;;;;;3.80;2.40;;;23.20;99.90;;;;;;5010715;28;20588;-75
2022/08/10 08:00:27;;;;;;;4.55;2.03;;;23.20;99.90;;;;;;5010490;28;20215;-75
2022/08/10 08:02:56;;;;;;;5.07;1.95;;;23.20;99.90;;;;;;5009696;28;20204;-77
2022/08/10 08:05:26;;;;;;;4.75;1.80;;;23.40;99.90;;;;;;5010937;28;20203;-76
2022/08/10 08:07:55;;;;;;;2.25;1.80;;;23.80;99.90;;;;;;5012961;28;20207;-75
2022/08/10 08:10:25;;;;;;;4.22;2.05;;;24.00;99.90;;;;;;5013483;28;20619;-77
2022/08/10 08:12:53;;;;;;;8.82;2.47;;;24.30;99.90;;;;;;5012651;28;21237;-75
2022/08/10 08:15:23;;;;;;;10.32;1.67;;;24.50;99.90;;;;;;5012902;28;20246;-75
2022/08/10 08:17:51;;;;;;;1.80;1.45;;;24.70;99.90;;;;;;5013579;28;20631;-77
2022/08/10 08:20:19;;;;;;;2.53;1.73;;;24.70;99.90;;;;;;5013707;28;20229;-76
2022/08/10 08:22:48;;;;;;;2.33;1.80;;;24.70;99.90;;;;;;5012901;28;20236;-76
2022/08/10 08:25:17;;;;;;;1.95;1.77;;;24.60;99.90;;;;;;5012489;28;20502;-76
2022/08/10 08:27:45;;;;;;;4.45;1.90;;;24.80;99.90;;;;;;5013406;28;20735;-77
2022/08/10 08:30:15;;;;;;;2.78;1.70;;;24.90;99.20;;;;;;5013657;28;20211;-75
2022/08/10 08:32:42;;;;;;;6.38;1.60;;;25.00;99.20;;;;;;5012689;28;20203;-75
2022/08/10 08:35:13;;;;;;;3.10;2.00;;;25.20;98.50;;;;;;5013308;28;20234;-76
2022/08/10 08:37:41;;;;;;;3.25;1.30;;;25.40;98.30;;;;;;5012990;28;20203;-75
2022/08/10 08:40:14;;;;;;;4.25;1.75;;;25.60;97.50;;;;;;5014026;28;20568;-76
2022/08/10 08:43:18;;;;;;;2.83;1.48;;;25.70;96.50;;;;;;5011782;28;20214;-75
2022/08/10 08:46:04;;;;;;;1.92;1.55;;;25.80;94.70;;;;;;5013561;28;20261;-75
2022/08/10 08:48:56;;;;;;;4.68;1.85;;;25.80;94.30;;;;;;5014287;28;20211;-75
2022/08/10 08:51:34;;;;;;;2.08;1.77;;;25.90;94.00;;;;;;5015196;28;20776;-75
2022/08/10 08:54:12;;;;;;;1.85;1.35;;;26.10;93.40;;;;;;5014965;28;20214;-75
2022/08/10 08:56:49;;;;;;;1.73;1.40;;;26.30;92.50;;;;;;5015320;28;20337;-75
2022/08/10 08:59:28;;;;;;;2.95;1.50;;;26.30;91.50;;;;;;5014175;28;20203;-76
2022/08/10 09:02:08;;;;;;;1.90;1.48;;;26.20;91.60;;;;;;5015247;28;20198;-75
2022/08/10 09:04:58;;;;;;;2.78;1.45;;;26.30;91.90;;;;;;5014507;28;20195;-75
2022/08/10 09:07:56;;;;;;;7.00;1.95;;;26.50;91.50;;;;;;5016305;28;20294;-74
2022/08/10 09:10:33;;;;;;;1.83;1.30;;;26.60;90.70;;;;;;5014518;28;20640;-75
2022/08/10 09:13:08;;;;;;;4.88;2.05;;;26.80;90.30;;;;;;5013825;28;20289;-75
2022/08/10 09:15:45;;;;;;;2.67;1.45;;;27.00;90.30;;;;;;5014239;28;20218;-75
2022/08/10 09:18:19;;;;;;;2.65;1.27;;;27.20;89.20;;;;;;5013039;28;20580;-74
2022/08/10 09:20:51;;;;;;;2.53;1.30;;;27.40;86.10;;;;;;5014665;28;20199;-75
2022/08/10 09:23:28;;;;;;;1.27;1.00;;;27.60;84.20;;;;;;5013024;28;20230;-75
2022/08/10 09:26:01;;;;;;;2.20;1.00;;;27.80;81.90;;;;;;5000179;28;20195;-75
2022/08/10 09:28:36;;;;;;;1.80;1.20;;;28.00;79.80;;;;;;5012699;28;20211;-74
2022/08/10 09:31:05;;;;;;;1.25;0.95;;;28.20;79.50;;;;;;5013072;28;20203;-74
2022/08/10 09:34:02;;;;;;;2.53;1.50;;;28.30;79.20;;;;;;5010271;28;20559;-74
2022/08/10 09:36:42;;;;;;;1.48;1.20;;;28.60;78.90;;;;;;5010623;28;20199;-74
2022/08/10 09:39:16;;;;;;;1.83;1.10;;;28.70;76.10;;;;;;5008616;28;20218;-74
2022/08/10 09:41:54;;;;;;;2.00;1.15;;;28.70;74.70;;;;;;5015241;28;20574;-76
2022/08/10 09:44:31;;;;;;;1.52;1.20;;;28.80;74.10;;;;;;5009909;28;20199;-75
2022/08/10 09:47:13;;;;;;;2.13;1.20;;;28.90;73.70;;;;;;5012548;28;20211;-75
2022/08/10 09:49:53;;;;;;;1.98;1.27;;;28.90;73.10;;;;;;5013179;28;20210;-75
2022/08/10 09:52:31;;;;;;;1.55;1.40;;;28.60;73.30;;;;;;5013525;28;20211;-73
2022/08/10 09:55:09;;;;;;;4.10;1.15;;;28.20;72.30;;;;;;5011526;28;20250;-76
2022/08/10 09:57:49;;;;;;;2.15;0.90;;;27.80;72.20;;;;;;5013387;28;20253;-77
2022/08/10 10:00:20;;;;;;;5.38;1.63;;;27.40;72.80;;;;;;5013993;28;20203;-76
2022/08/10 10:03:03;;;;;;;1.90;1.33;;;27.20;73.70;;;;;;5011824;28;20302;-76
2022/08/10 10:05:43;;;;;;;1.42;1.17;;;27.10;75.40;;;;;;4998947;28;20215;-75
2022/08/10 10:08:19;;;;;;;3.42;1.30;;;27.10;76.60;;;;;;5011998;28;20290;-76
2022/08/10 10:10:57;;;;;;;1.52;0.98;;;27.20;76.40;;;;;;5012223;28;20438;-77
2022/08/10 10:13:31;;;;;;;2.30;1.30;;;28.00;72.60;;;;;;5010337;28;20310;-77
2022/08/10 10:16:16;;;;;;;2.45;1.50;;;28.00;73.30;;;;;;5012078;28;20227;-76
2022/08/10 10:18:47;;;;;;;3.80;1.80;;;28.10;73.00;;;;;;5010502;28;20652;-76
2022/08/10 10:21:20;;;;;;;1.23;1.13;;;28.30;73.50;;;;;;5011499;28;20199;-77
2022/08/10 10:23:58;;;;;;;2.05;1.20;;;28.60;72.50;;;;;;5008636;28;20203;-77
2022/08/10 10:26:36;;;;;;;1.92;0.98;;;28.90;72.30;;;;;;5012607;28;20749;-72
2022/08/10 10:29:12;;;;;;;1.38;1.20;;;29.00;69.10;;;;;;5012415;28;20214;-75
2022/08/10 10:31:45;;;;;;;1.58;1.10;;;28.90;67.00;;;;;;5010656;28;20234;-76
2022/08/10 10:34:20;;;;;;;2.28;1.52;;;28.70;66.30;;;;;;5003693;28;20209;-69
2022/08/10 10:36:48;;;;;;;2.85;1.60;;;28.60;68.30;;;;;;5013705;28;20678;-70
2022/08/10 10:39:20;;;;;;;1.10;0.95;;;28.70;68.50;;;;;;5011123;28;20207;-68
2022/08/10 10:41:50;;;;;;;3.47;1.15;;;28.70;67.30;;;;;;5011387;28;20563;-71
2022/08/10 10:44:41;;;;;;;3.08;1.10;;;28.60;67.60;;;;;;5009426;28;20207;-72
2022/08/10 10:47:23;;;;;;;1.20;1.10;;;28.60;67.80;;;;;;5000973;28;20207;-70
2022/08/10 10:49:57;;;;;;;1.50;1.40;;;28.60;67.90;;;;;;5010573;28;20237;-72
2022/08/10 10:52:49;;;;;;;2.85;1.55;;;28.70;68.40;;;;;;5010268;28;20207;-69
2022/08/10 10:55:22;;;;;;;6.13;1.58;;;28.80;67.90;;;;;;5008593;28;20211;-71
2022/08/10 10:57:58;;;;;;;1.20;1.10;;;28.70;68.30;;;;;;5010407;28;20247;-70
2022/08/10 11:00:32;;;;;;;1.58;1.48;;;28.50;68.70;;;;;;4997186;28;20211;-72
2022/08/10 11:03:13;;;;;;;1.35;1.20;;;28.20;68.90;;;;;;5010776;28;20234;-75
2022/08/10 11:05:49;;;;;;;2.88;1.30;;;27.90;69.40;;;;;;4997713;28;20210;-72
2022/08/10 11:08:22;;;;;;;2.00;1.30;;;27.70;70.10;;;;;;5009952;28;20298;-73
2022/08/10 11:10:54;;;;;;;1.35;1.15;;;27.40;70.80;;;;;;5007396;28;20207;-74
2022/08/10 11:13:28;;;;;;;1.23;0.93;;;27.30;70.70;;;;;;5008916;28;20299;-74
2022/08/10 11:16:04;;;;;;;1.58;1.10;;;27.20;70.00;;;;;;5010412;28;20242;-74
2022/08/10 11:18:53;;;;;;;3.03;1.05;;;27.10;69.60;;;;;;5006297;28;20621;-73
2022/08/10 11:21:30;;;;;;;1.40;1.30;;;27.00;69.70;;;;;;5010259;28;20302;-73
2022/08/10 11:24:03;;;;;;;1.40;1.30;;;27.00;69.80;;;;;;5009355;28;20203;-73
2022/08/10 11:26:36;;;;;;;1.10;1.00;;;27.00;70.20;;;;;;5010013;28;20249;-73
2022/08/10 11:29:09;;;;;;;2.78;1.65;;;27.00;70.20;;;;;;5007730;28;20207;-73
2022/08/10 11:31:40;;;;;;;1.58;1.20;;;27.30;70.90;;;;;;5009073;28;20244;-73
2022/08/10 11:34:16;;;;;;;1.30;0.90;;;27.70;70.90;;;;;;5001943;28;20555;-73
2022/08/10 11:36:53;;;;;;;2.22;1.50;;;28.00;69.60;;;;;;4997428;28;20254;-74
2022/08/10 11:39:28;;;;;;;1.52;1.35;;;28.20;68.90;;;;;;5010046;28;20199;-74
2022/08/10 11:42:01;;;;;;;2.78;1.30;;;28.30;69.30;;;;;;5000094;28;20225;-72
2022/08/10 11:44:33;;;;;;;2.42;1.20;;;28.60;67.90;;;;;;5012210;28;20203;-74
2022/08/10 11:47:05;;;;;;;1.15;1.10;;;28.70;67.00;;;;;;5012717;28;20203;-72
2022/08/10 11:49:40;;;;;;;1.75;0.98;;;28.90;65.30;;;;;;5013322;28;20293;-74
2022/08/10 11:52:13;;;;;;;2.38;1.38;;;28.70;64.50;;;;;;5001067;28;20202;-73
2022/08/10 11:54:43;;;;;;;1.40;1.25;;;28.50;64.10;;;;;;5011949;28;20222;-73
2022/08/10 11:57:12;;;;;;;1.83;1.10;;;28.10;64.40;;;;;;5013077;28;20555;-75
2022/08/10 11:59:58;;;;;;;2.15;1.08;;;27.70;65.00;;;;;;5012449;28;20215;-74
2022/08/10 12:02:29;;;;;;;1.15;1.00;;;27.40;65.50;;;;;;5001755;28;20331;-74
2022/08/10 12:05:00;;;;;;;3.17;1.45;;;27.20;66.20;;;;;;5013460;28;20622;-74
2022/08/10 12:07:29;;;;;;;3.05;1.10;;;27.30;66.60;;;;;;5014087;28;20200;-74
2022/08/10 12:09:56;;;;;;;1.77;1.10;;;27.70;66.50;;;;;;5013303;28;20206;-74
2022/08/10 12:12:24;;;;;;;0.93;0.93;;;28.20;66.60;;;;;;4999393;28;20268;-73
2022/08/10 12:14:58;;;;;;;1.13;0.90;;;28.40;64.60;;;;;;5012792;28;20215;-73
2022/08/10 12:17:30;;;;;;;2.63;1.40;;;28.70;64.20;;;;;;5011737;28;20790;-73
2022/08/10 12:20:07;;;;;;;3.13;1.17;;;28.70;63.00;;;;;;5012883;28;20211;-74
2022/08/10 12:22:42;;;;;;;1.40;1.10;;;28.80;63.20;;;;;;5011945;28;20721;-74
2022/08/10 12:25:14;;;;;;;2.60;1.48;;;28.90;62.40;;;;;;5013419;28;20682;-74
2022/08/10 12:27:46;;;;;;;1.00;1.00;;;29.00;62.60;;;;;;4999875;28;20210;-73
2022/08/10 12:30:16;;;;;;;1.05;0.90;;;29.10;61.70;;;;;;5012417;28;20203;-73
2022/08/10 12:32:56;;;;;;;1.65;1.00;;;29.20;60.00;;;;;;5010310;28;20203;-73
2022/08/10 12:35:32;;;;;;;1.98;1.02;;;29.20;59.40;;;;;;5013092;28;20219;-74
2022/08/10 12:38:08;;;;;;;1.67;0.98;;;29.20;60.40;;;;;;5013662;28;20210;-73
2022/08/10 12:40:42;;;;;;;0.93;0.90;;;29.20;60.10;;;;;;5013136;28;20754;-72
2022/08/10 12:43:14;;;;;;;1.05;1.00;;;29.20;59.50;;;;;;5010964;28;20203;-73
2022/08/10 12:45:50;;;;;;;1.90;1.10;;;29.40;59.10;;;;;;5012742;28;20573;-73
2022/08/10 12:48:23;;;;;;;1.17;0.90;;;29.50;58.90;;;;;;5012638;28;20207;-73
2022/08/10 12:50:57;;;;;;;0.95;0.93;;;29.50;58.30;;;;;;5011439;28;20207;-73
2022/08/10 12:53:39;;;;;;;1.48;1.10;;;29.50;58.70;;;;;;5011845;28;20213;-73
2022/08/10 12:56:06;;;;;;;4.10;1.33;;;29.60;59.70;;;;;;5011883;28;20708;-74
2022/08/10 12:58:37;;;;;;;2.92;1.45;;;29.30;60.40;;;;;;5012611;28;20207;-73
2022/08/10 13:01:06;;;;;;;4.97;1.20;;;29.00;61.00;;;;;;5012802;28;20487;-73
2022/08/10 13:03:36;;;;;;;1.98;1.30;;;28.70;61.40;;;;;;5011591;28;20214;-76
2022/08/10 13:06:07;;;;;;;1.13;1.02;;;28.40;61.10;;;;;;5007035;28;20603;-75
2022/08/10 13:11:24;;;;;;;2.40;0.93;;;27.80;60.80;;;;;;5012335;28;20690;-73
2022/08/10 13:13:53;;;;;;;1.15;1.10;;;27.50;60.50;;;;;;5010283;28;20678;-74
2022/08/10 13:16:23;;;;;;;0.90;0.90;;;27.40;61.90;;;;;;5011888;28;20231;-74